Time;durP1;ratioP1;P1;durP2;ratioP2;P2;SDS_P1;SDS_P2;PMS_P1;PMS_P2;Temp;Humidity;BMP_temperature;BMP_pressure;BME280_temperature;BME280_humidity;BME280_pressure;Samples;Min_cycle;Max_cycle;Signal;HPM_P1;HPM_P2
2021/05/18 00:42:42;;;;;;;29.85;13.23;;;;;;;;;;5031726;28;20087;-63
2021/05/18 00:45:08;;;;;;;29.77;11.25;;;;;;;;;;5031277;28;20033;-62
2021/05/18 00:47:34;;;;;;;24.05;11.98;;;;;;;;;;5030950;28;20052;-62
2021/05/18 00:50:00;;;;;;;30.05;12.50;;;;;;;;;;5030965;28;20022;-61
2021/05/18 00:52:26;;;;;;;26.27;11.57;;;;;;;;;;5030672;28;20076;-62
2021/05/18 00:54:58;;;;;;;28.25;12.15;;;;;;;;;;5030224;28;20032;-62
2021/05/18 01:00:09;;;;;;;30.10;12.50;;;;;;;;;;5030622;28;20036;-57
2021/05/18 01:02:35;;;;;;;29.55;11.88;;;;;;;;;;5030974;28;20382;-63
2021/05/18 01:14:17;;;;;;;29.23;11.93;;;;;;;;;;5031340;28;20468;-63
2021/05/18 01:16:50;;;;;;;31.13;12.32;;;;;;;;;;5030740;28;20071;-63
2021/05/18 01:19:17;;;;;;;30.27;12.93;;;;;;;;;;5030953;28;20024;-59
2021/05/18 01:21:43;;;;;;;29.30;12.40;;;;;;;;;;5032893;28;20033;-60
2021/05/18 01:24:09;;;;;;;28.23;13.05;;;;;;;;;;5032872;28;20440;-59
2021/05/18 01:26:37;;;;;;;26.45;11.88;;;;;;;;;;5030964;28;20080;-59
2021/05/18 01:29:04;;;;;;;25.52;11.38;;;;;;;;;;5029895;28;20038;-60
2021/05/18 01:31:31;;;;;;;31.10;14.68;;;;;;;;;;5030631;28;20401;-61
2021/05/18 01:34:00;;;;;;;26.08;12.43;;;;;;;;;;5031206;28;20028;-63
2021/05/18 01:36:26;;;;;;;32.40;12.07;;;;;;;;;;5031535;28;20032;-61
2021/05/18 01:39:13;;;;;;;29.80;12.13;;;;;;;;;;5030730;28;20489;-63
2021/05/18 01:44:23;;;;;;;27.70;12.05;;;;;;;;;;5030934;28;20041;-61
2021/05/18 01:46:49;;;;;;;29.00;11.50;;;;;;;;;;5030508;28;20029;-61
2021/05/18 01:49:16;;;;;;;27.27;12.68;;;;;;;;;;5030009;28;20101;-62
2021/05/18 01:51:44;;;;;;;27.95;12.27;;;;;;;;;;5031362;28;20021;-63
2021/05/18 01:54:15;;;;;;;29.08;11.98;;;;;;;;;;5031357;28;20093;-60
2021/05/18 01:59:17;;;;;;;28.10;12.77;;;;;;;;;;5028990;28;20116;-62
2021/05/18 02:01:43;;;;;;;26.55;12.65;;;;;;;;;;5030604;28;20474;-63
2021/05/18 02:04:19;;;;;;;28.30;12.82;;;;;;;;;;5029854;28;20038;-61
2021/05/18 02:06:45;;;;;;;28.13;12.88;;;;;;;;;;5031307;28;20064;-62
2021/05/18 02:09:11;;;;;;;28.05;13.90;;;;;;;;;;5028969;28;20061;-61
2021/05/18 02:11:37;;;;;;;28.55;13.43;;;;;;;;;;5030529;28;20448;-62
2021/05/18 02:14:07;;;;;;;31.30;12.68;;;;;;;;;;5030909;28;20026;-63
2021/05/18 02:16:34;;;;;;;29.20;12.63;;;;;;;;;;5033940;28;20024;-63
2021/05/18 02:26:46;;;;;;;33.15;14.35;;;;;;;;;;5034728;28;20037;-61
2021/05/18 02:29:12;;;;;;;36.50;14.25;;;;;;;;;;5032461;28;20350;-60
2021/05/18 02:31:38;;;;;;;35.60;14.90;;;;;;;;;;5034467;28;20393;-62
2021/05/18 02:34:04;;;;;;;33.85;15.90;;;;;;;;;;5034320;28;20018;-60
2021/05/18 02:36:30;;;;;;;36.28;13.82;;;;;;;;;;5033335;28;20113;-63
2021/05/18 02:38:56;;;;;;;32.30;14.63;;;;;;;;;;5032392;28;20556;-62
2021/05/18 02:41:23;;;;;;;34.70;15.85;;;;;;;;;;5033522;28;20044;-63
2021/05/18 02:49:07;;;;;;;39.15;16.15;;;;;;;;;;5033538;28;20033;-60
2021/05/18 02:49:11;;;;;;;36.55;16.10;;;;;;;;;;5032506;28;20038;-61
2021/05/18 02:51:38;;;;;;;36.78;16.02;;;;;;;;;;5033870;28;20026;-62
2021/05/18 02:54:04;;;;;;;32.63;14.07;;;;;;;;;;5034079;28;20107;-59
2021/05/18 02:56:41;;;;;;;38.22;15.00;;;;;;;;;;5032698;28;20026;-64
2021/05/18 02:59:18;;;;;;;37.50;15.50;;;;;;;;;;5033674;28;20371;-60
2021/05/18 03:01:45;;;;;;;37.83;17.35;;;;;;;;;;5033921;28;20386;-61
2021/05/18 03:04:11;;;;;;;38.50;16.05;;;;;;;;;;5032861;28;20104;-63
2021/05/18 03:06:37;;;;;;;33.83;15.85;;;;;;;;;;5032366;28;20033;-63
2021/05/18 03:09:08;;;;;;;32.72;14.15;;;;;;;;;;5032831;28;20030;-61
2021/05/18 03:11:34;;;;;;;38.83;15.43;;;;;;;;;;5032028;28;20030;-59
2021/05/18 03:14:00;;;;;;;45.38;17.63;;;;;;;;;;5032874;28;20014;-61
2021/05/18 03:16:26;;;;;;;39.70;15.52;;;;;;;;;;5031603;28;20018;-63
2021/05/18 03:18:52;;;;;;;39.67;16.27;;;;;;;;;;5030796;28;20401;-61
2021/05/18 03:21:18;;;;;;;37.55;15.60;;;;;;;;;;5033492;28;20021;-60
2021/05/18 03:23:45;;;;;;;35.53;15.68;;;;;;;;;;5033412;28;20065;-60
2021/05/18 03:26:11;;;;;;;31.85;15.10;;;;;;;;;;5031115;28;20127;-61
2021/05/18 03:28:37;;;;;;;32.50;16.52;;;;;;;;;;5032446;28;20040;-58
2021/05/18 03:36:14;;;;;;;33.53;15.95;;;;;;;;;;5033243;28;20032;-61
2021/05/18 03:41:20;;;;;;;35.85;16.73;;;;;;;;;;5032367;28;20029;-63
2021/05/18 03:44:03;;;;;;;41.33;15.40;;;;;;;;;;5032169;28;20037;-63
2021/05/18 04:04:56;;;;;;;35.78;16.85;;;;;;;;;;5030939;28;20075;-61
2021/05/18 04:10:32;;;;;;;28.10;12.93;;;;;;;;;;5023401;28;20071;-62
2021/05/18 04:18:30;;;;;;;29.67;13.40;;;;;;;;;;5032158;28;20067;-61
2021/05/18 04:21:06;;;;;;;31.15;14.32;;;;;;;;;;5031480;28;20021;-61
2021/05/18 05:06:44;;;;;;;31.60;15.90;;;;;;;;;;5020134;28;20037;-60
2021/05/18 05:09:22;;;;;;;31.75;14.82;;;;;;;;;;5030381;28;20033;-60
2021/05/18 05:14:33;;;;;;;31.20;15.88;;;;;;;;;;5030591;28;20088;-61
2021/05/18 05:16:59;;;;;;;32.33;16.90;;;;;;;;;;5030460;28;20109;-58
2021/05/18 05:19:28;;;;;;;41.38;17.92;;;;;;;;;;5030149;28;20100;-62
2021/05/18 05:21:54;;;;;;;31.63;16.13;;;;;;;;;;5031184;28;20021;-61
2021/05/18 05:24:20;;;;;;;32.30;17.08;;;;;;;;;;5030656;28;20053;-61
2021/05/18 05:26:47;;;;;;;33.70;17.25;;;;;;;;;;5030808;28;20632;-60
2021/05/18 05:29:13;;;;;;;31.35;16.67;;;;;;;;;;5029485;28;20037;-61
2021/05/18 05:31:40;;;;;;;37.28;16.10;;;;;;;;;;5030347;28;20021;-64
2021/05/18 05:34:06;;;;;;;34.20;17.00;;;;;;;;;;5030531;28;20060;-60
2021/05/18 05:36:32;;;;;;;32.08;16.15;;;;;;;;;;5030786;28;20026;-60
2021/05/18 05:39:08;;;;;;;40.42;18.77;;;;;;;;;;5030355;28;20964;-63
2021/05/18 05:41:34;;;;;;;35.85;17.48;;;;;;;;;;5031061;28;20029;-62
2021/05/18 05:44:00;;;;;;;34.55;17.48;;;;;;;;;;5031119;28;20104;-62
2021/05/18 05:46:26;;;;;;;32.97;15.68;;;;;;;;;;5031134;28;20166;-61
2021/05/18 05:48:53;;;;;;;32.78;16.17;;;;;;;;;;5030622;28;20486;-59
2021/05/18 05:51:26;;;;;;;39.55;16.70;;;;;;;;;;5034975;28;20087;-60
2021/05/18 05:53:53;;;;;;;31.77;16.52;;;;;;;;;;5034820;28;20017;-60
2021/05/18 05:56:19;;;;;;;33.97;17.67;;;;;;;;;;5034304;28;20021;-57
2021/05/18 05:58:46;;;;;;;34.20;18.52;;;;;;;;;;5033213;28;20049;-61
2021/05/18 06:01:12;;;;;;;33.50;16.75;;;;;;;;;;5033490;28;20380;-60
2021/05/18 06:03:39;;;;;;;36.20;18.48;;;;;;;;;;5032856;28;20421;-60
2021/05/18 06:06:05;;;;;;;43.45;21.95;;;;;;;;;;5034156;28;20017;-60
2021/05/18 06:08:35;;;;;;;37.17;20.48;;;;;;;;;;5034284;28;20032;-59
2021/05/18 06:11:07;;;;;;;38.97;21.10;;;;;;;;;;5033614;28;20013;-60
2021/05/18 06:30:01;;;;;;;35.55;20.95;;;;;;;;;;5033439;28;20401;-60
2021/05/18 06:37:50;;;;;;;38.72;22.25;;;;;;;;;;5019757;28;20026;-62
2021/05/18 06:48:11;;;;;;;39.00;24.67;;;;;;;;;;5033929;28;20061;-60
2021/05/18 06:50:38;;;;;;;42.30;24.13;;;;;;;;;;5016110;28;20022;-62
2021/05/18 06:53:04;;;;;;;41.22;25.02;;;;;;;;;;5024404;28;20022;-51
2021/05/18 06:55:32;;;;;;;41.75;25.58;;;;;;;;;;5032427;28;20026;-52
2021/05/18 06:58:07;;;;;;;37.50;24.55;;;;;;;;;;5032582;28;20151;-52
2021/05/18 07:00:36;;;;;;;41.22;25.42;;;;;;;;;;5033005;28;20482;-57
2021/05/18 07:03:03;;;;;;;43.15;27.35;;;;;;;;;;5033476;28;20104;-57
2021/05/18 07:10:27;;;;;;;42.35;27.55;;;;;;;;;;5032835;28;20021;-58
2021/05/18 07:12:53;;;;;;;41.28;25.23;;;;;;;;;;5032121;28;20120;-52
2021/05/18 07:15:19;;;;;;;38.67;22.35;;;;;;;;;;5033370;28;20017;-58
2021/05/18 07:17:45;;;;;;;42.50;25.17;;;;;;;;;;5033242;28;20029;-59
2021/05/18 07:20:11;;;;;;;36.47;22.88;;;;;;;;;;5031311;28;20136;-56
2021/05/18 07:22:37;;;;;;;37.60;24.75;;;;;;;;;;5033244;28;20021;-59
2021/05/18 07:25:04;;;;;;;40.25;25.40;;;;;;;;;;5033123;28;20028;-59
2021/05/18 07:27:30;;;;;;;40.00;24.52;;;;;;;;;;5032593;28;20120;-57
2021/05/18 07:29:56;;;;;;;38.10;24.17;;;;;;;;;;5032591;28;20034;-60
2021/05/18 07:32:22;;;;;;;36.35;22.88;;;;;;;;;;5032588;28;20029;-58
2021/05/18 07:34:50;;;;;;;33.90;22.48;;;;;;;;;;5032452;28;20535;-59
2021/05/18 07:37:16;;;;;;;35.03;22.27;;;;;;;;;;5030985;28;20072;-57
2021/05/18 07:39:42;;;;;;;37.33;24.98;;;;;;;;;;5031925;28;20477;-53
2021/05/18 07:42:09;;;;;;;35.90;22.10;;;;;;;;;;5032539;28;20084;-51
2021/05/18 07:44:35;;;;;;;28.80;18.55;;;;;;;;;;5032963;28;20025;-54
2021/05/18 07:47:02;;;;;;;35.58;21.75;;;;;;;;;;5032627;28;20025;-54
2021/05/18 08:05:20;;;;;;;29.13;18.13;;;;;;;;;;5032659;28;20396;-57
2021/05/18 08:07:46;;;;;;;29.55;18.88;;;;;;;;;;5032478;28;20436;-58
2021/05/18 08:10:20;;;;;;;29.38;19.50;;;;;;;;;;5031858;28;20474;-55
2021/05/18 08:12:46;;;;;;;29.85;19.15;;;;;;;;;;5031853;28;20390;-56
2021/05/18 08:21:24;;;;;;;24.30;15.45;;;;;;;;;;5032009;28;20108;-56
2021/05/18 10:36:11;;;;;;;17.98;13.05;;;;;;;;;;5033711;28;20061;-50
2021/05/18 10:38:42;;;;;;;17.23;10.70;;;;;;;;;;5033511;28;20021;-53
2021/05/18 10:41:27;;;;;;;18.73;11.68;;;;;;;;;;5034184;28;20040;-53
2021/05/18 10:43:56;;;;;;;17.38;10.95;;;;;;;;;;5030962;28;20359;-54
2021/05/18 10:46:25;;;;;;;18.55;11.13;;;;;;;;;;5024341;28;20099;-57
2021/05/18 10:48:53;;;;;;;17.85;10.43;;;;;;;;;;5021531;28;20030;-54
2021/05/18 10:51:35;;;;;;;17.27;9.85;;;;;;;;;;5022404;28;20026;-55
2021/05/18 10:54:22;;;;;;;16.75;9.80;;;;;;;;;;5022849;28;20037;-55
2021/05/18 10:57:01;;;;;;;18.45;10.98;;;;;;;;;;5024034;28;20056;-56
2021/05/18 10:59:26;;;;;;;;;;;;;;;;;;5032222;28;20561;-56
2021/05/18 11:02:06;;;;;;;19.30;10.65;;;;;;;;;;5034533;28;19944;-57
2021/05/18 11:04:35;;;;;;;16.35;9.38;;;;;;;;;;5031823;28;20052;-56
2021/05/18 11:07:03;;;;;;;16.38;9.93;;;;;;;;;;5021450;28;20061;-56
2021/05/18 11:09:29;;;;;;;19.63;9.80;;;;;;;;;;5021190;28;20034;-54
2021/05/18 11:12:01;;;;;;;15.50;8.60;;;;;;;;;;5022272;28;20108;-54
2021/05/18 11:14:48;;;;;;;16.00;9.07;;;;;;;;;;5022454;28;20382;-54
2021/05/18 11:17:16;;;;;;;14.57;8.27;;;;;;;;;;5015586;28;20113;-56
2021/05/18 11:19:51;;;;;;;18.30;9.63;;;;;;;;;;5021705;28;20034;-53
2021/05/18 11:23:18;;;;;;;14.32;8.48;;;;;;;;;;5023057;28;20026;-55
2021/05/18 11:25:04;;;;;;;15.07;8.38;;;;;;;;;;5021723;28;20040;-55
2021/05/18 11:27:30;;;;;;;15.73;8.30;;;;;;;;;;5023427;28;20041;-59
2021/05/18 11:29:56;;;;;;;18.35;8.65;;;;;;;;;;5021256;28;20026;-59
2021/05/18 11:32:22;;;;;;;15.80;7.88;;;;;;;;;;5023410;28;20422;-55
2021/05/18 11:34:57;;;;;;;13.90;7.72;;;;;;;;;;5020210;28;20024;-52
2021/05/18 11:37:24;;;;;;;16.48;8.40;;;;;;;;;;5030100;28;20061;-58
2021/05/18 11:39:50;;;;;;;15.23;8.23;;;;;;;;;;5032470;28;20029;-57
2021/05/18 11:42:29;;;;;;;14.93;7.50;;;;;;;;;;5032940;28;20025;-53
2021/05/18 11:45:15;;;;;;;14.02;7.53;;;;;;;;;;5033119;28;20124;-58
2021/05/18 11:47:42;;;;;;;15.48;7.72;;;;;;;;;;5032160;28;20148;-59
2021/05/18 11:50:16;;;;;;;16.02;8.23;;;;;;;;;;5077728;22;20040;-59
2021/05/18 11:52:42;;;;;;;16.35;8.30;;;;;;;;;;5072740;28;20509;-58
2021/05/18 11:55:20;;;;;;;15.55;7.53;;;;;;;;;;5082449;28;20403;-55
2021/05/18 11:57:46;;;;;;;16.73;8.25;;;;;;;;;;5076496;28;20028;-59
2021/05/18 12:00:22;;;;;;;17.65;8.82;;;;;;;;;;5044566;28;20195;-58
2021/05/18 12:02:48;;;;;;;15.77;8.27;;;;;;;;;;5041609;28;20030;-56
2021/05/18 12:05:14;;;;;;;15.43;7.97;;;;;;;;;;5056476;28;20398;-58
2021/05/18 12:07:41;;;;;;;16.17;7.93;;;;;;;;;;5062149;28;20054;-58
2021/05/18 12:10:07;;;;;;;15.95;8.52;;;;;;;;;;5042573;28;20103;-57
2021/05/18 12:12:37;;;;;;;17.55;8.57;;;;;;;;;;5050767;28;20029;-55
2021/05/18 12:15:06;;;;;;;16.60;8.80;;;;;;;;;;5061035;28;20025;-54
2021/05/18 12:17:36;;;;;;;17.52;8.70;;;;;;;;;;5061209;28;20035;-59
2021/05/18 12:20:03;;;;;;;17.30;9.27;;;;;;;;;;5063346;28;20020;-60
2021/05/18 12:22:30;;;;;;;16.50;8.52;;;;;;;;;;5068384;28;20425;-59
2021/05/18 12:24:57;;;;;;;16.38;9.20;;;;;;;;;;5063230;28;20397;-59
2021/05/18 12:27:23;;;;;;;16.27;8.93;;;;;;;;;;5061876;28;20025;-58
2021/05/18 12:29:53;;;;;;;18.20;9.30;;;;;;;;;;5062454;28;20067;-58
2021/05/18 12:32:20;;;;;;;17.58;9.32;;;12.80;99.90;;;;;;5072153;28;20043;-58
2021/05/18 12:34:47;;;;;;;16.70;8.90;;;;;;;;;;5072750;28;20047;-60
2021/05/18 12:37:14;;;;;;;16.98;9.00;;;;;;;;;;5072276;28;20092;-59
2021/05/18 12:39:44;;;;;;;16.40;9.90;;;;;;;;;;5071340;28;20421;-60
2021/05/18 12:42:15;;;;;;;17.48;10.60;;;;;;;;;;5054007;28;20021;-58
2021/05/18 12:45:01;;;;;;;16.75;10.60;;;15.70;99.90;;;;;;5072446;28;20052;-58
2021/05/18 12:47:27;;;;;;;16.55;10.57;;;;;;;;;;5053535;28;20119;-60
2021/05/18 12:49:53;;;;;;;16.75;10.82;;;;;;;;;;5053297;28;20107;-57
2021/05/18 12:52:22;;;;;;;16.55;10.38;;;;;;;;;;5054235;28;20572;-59
2021/05/18 12:54:48;;;;;;;;;;;;;;;;;;5072476;28;20028;-59
2021/05/18 12:57:15;;;;;;;16.90;9.60;;;;;;;;;;5054314;28;19904;-60
2021/05/18 12:59:56;;;;;;;17.30;10.02;;;;;;;;;;5071221;28;20040;-60
2021/05/18 13:02:28;;;;;;;17.13;9.48;;;;;;;;;;5072136;28;20069;-59
2021/05/18 13:05:15;;;;;;;18.15;9.45;;;;;;;;;;4695631;28;10000288;-60
2021/05/18 13:07:42;;;;;;;16.23;9.00;;;;;;;;;;5048664;28;20029;-60
2021/05/18 13:10:21;;;;;;;15.93;8.80;;;;;;;;;;5030418;28;20128;-58
2021/05/18 13:12:47;;;;;;;16.23;9.23;;;;;;;;;;5030827;28;20075;-60
2021/05/18 13:15:19;;;;;;;16.70;9.30;;;;;;;;;;5048409;28;20052;-59
2021/05/18 13:17:55;;;;;;;15.40;8.65;;;;;;;;;;5047729;28;20025;-59
2021/05/18 13:20:22;;;;;;;15.35;8.00;;;;;;;;;;5047171;28;20025;-56
2021/05/18 13:22:55;;;;;;;16.00;8.50;;;;;;;;;;5048865;28;20540;-59
2021/05/18 13:28:06;;;;;;;16.70;8.63;;;;;;;;;;5051754;28;20504;-58
2021/05/18 13:30:33;;;;;;;17.15;8.27;;;;;;;;;;5033076;28;20068;-60
2021/05/18 13:32:59;;;;;;;16.95;8.32;;;;;;;;;;5034020;28;20021;-60
2021/05/18 13:35:26;;;;;;;16.50;8.98;;;;;;;;;;4701293;28;9999712;-60
2021/05/18 13:37:52;;;;;;;16.15;9.43;;;;;;;;;;5064166;28;20029;-60
2021/05/18 13:40:20;;;;;;;17.05;10.18;;;;;;;;;;5047843;28;20025;-60
2021/05/18 13:42:51;;;;;;;16.87;10.07;;;;;;;;;;5048711;28;20029;-60
2021/05/18 13:45:17;;;;;;;17.77;9.85;;;;;;;;;;5053608;28;20293;-61
2021/05/18 13:47:43;;;;;;;16.77;10.27;;;;;;;;;;5050642;28;20029;-60
2021/05/18 13:50:10;;;;;;;18.45;9.82;;;;;;;;;;5029423;28;20057;-60
2021/05/18 13:52:36;;;;;;;17.60;9.68;;;;;;;;;;5030988;28;20055;-60
2021/05/18 13:55:02;;;;;;;19.55;8.68;;;;;;;;;;5043059;28;20071;-60
2021/05/18 13:57:28;;;;;;;18.30;9.90;;;;;;;;;;5040830;28;20075;-60
2021/05/18 13:59:55;;;;;;;21.10;16.45;;;;;;;;;;5059751;28;20028;-60
2021/05/18 14:02:21;;;;;;;22.30;18.25;;;;;;;;;;5050521;28;20115;-60
2021/05/18 14:04:47;;;;;;;24.88;19.33;;;20.20;99.90;;;;;;5068501;28;20442;-60
2021/05/18 14:10:08;;;;;;;21.48;15.93;;;11.20;99.90;;;;;;5068831;28;20490;-59
2021/05/18 14:12:34;;;;;;;24.38;17.25;;;;;;;;;;5053720;28;20396;-60
2021/05/18 14:15:00;;;;;;;30.58;17.85;;;;;;;;;;5071671;28;20605;-60
2021/05/18 14:17:26;;;;;;;20.73;15.13;;;;;;;;;;5060136;28;20099;-60
2021/05/18 14:19:52;;;;;;;22.00;15.02;;;;;;;;;;5066110;28;20025;-60
2021/05/18 14:22:18;;;;;;;23.00;15.93;;;;;;;;;;5051284;28;20033;-60
2021/05/18 14:25:04;;;;;;;26.48;19.23;;;;;;;;;;5051123;28;20036;-58
2021/05/18 14:27:34;;;;;;;23.70;15.32;;;;;;;;;;5053259;28;20021;-58
2021/05/18 14:30:00;;;;;;;17.77;10.32;;;;;;;;;;5065855;28;20021;-61
2021/05/18 14:32:26;;;;;;;19.83;12.52;;;;;;;;;;5051734;28;20021;-60
2021/05/18 14:34:53;;;;;;;18.60;12.95;;;;;;;;;;5051256;28;20033;-61
2021/05/18 14:37:19;;;;;;;19.55;13.85;;;;;;;;;;5051560;28;20104;-59
2021/05/18 14:42:54;;;;;;;19.35;14.20;;;;;;;;;;4989471;28;20559;-60
2021/05/18 14:45:24;;;;;;;20.63;13.73;;;;;;;;;;4989444;28;20034;-60
2021/05/18 14:55:55;;;;;;;16.88;12.13;;;;;;;;;;5051104;28;20033;-59
2021/05/18 14:58:21;;;;;;;15.82;10.80;;;;;;;;;;5051196;28;20485;-57
2021/05/18 15:00:47;;;;;;;15.80;10.05;;;;;;;;;;5050665;28;20034;-59
2021/05/18 15:03:13;;;;;;;15.95;10.27;;;;;;;;;;5051707;28;20029;-61
2021/05/18 15:05:40;;;;;;;16.40;9.95;;;;;;;;;;5051392;28;20103;-60
2021/05/18 15:08:07;;;;;;;15.50;10.55;;;;;;;;;;5050958;28;20465;-61
2021/05/18 15:10:33;;;;;;;15.55;10.52;;;;;;;;;;5050583;28;20139;-61
2021/05/18 15:12:59;;;;;;;15.10;10.80;;;;;;;;;;5066242;28;20459;-61
2021/05/18 15:15:26;;;;;;;16.92;11.10;;;;;;;;;;5050999;28;20032;-60
2021/05/18 15:17:54;;;;;;;15.82;9.70;;;;;;;;;;5050147;28;20029;-61
2021/05/18 15:20:20;;;;;;;15.05;9.30;;;;;;;;;;5032516;28;20028;-61
2021/05/18 15:22:46;;;;;;;15.18;9.48;;;;;;;;;;5051120;28;20040;-58
2021/05/18 15:25:12;;;;;;;14.73;8.95;;;;;;;;;;4724915;28;10000443;-61
2021/05/18 15:27:38;;;;;;;15.48;8.85;;;;;;;;;;5087838;28;20266;-60
2021/05/18 15:30:06;;;;;;;16.00;9.07;;;;;;;;;;5088933;28;20450;-61
2021/05/18 15:32:32;;;;;;;15.67;9.87;;;;;;;;;;5088675;28;20038;-61
2021/05/18 15:34:58;;;;;;;14.90;9.18;;;;;;;;;;5089587;28;20039;-62
2021/05/18 15:37:24;;;;;;;16.95;10.25;;;;;;;;;;5087878;28;20020;-62
2021/05/18 15:39:50;;;;;;;16.38;9.98;;;;;;;;;;5090006;28;20031;-61
2021/05/18 15:42:16;;;;;;;16.00;10.27;;;;;;;;;;5091200;28;20067;-60
2021/05/18 15:44:42;;;;;;;16.17;9.77;;;;;;;;;;5074041;28;20028;-62
2021/05/18 15:47:08;;;;;;;15.48;8.95;;;;;;;;;;5091395;28;20097;-62
2021/05/18 15:49:34;;;;;;;14.98;9.77;;;;;;;;;;5089798;28;20047;-62
2021/05/18 15:52:00;;;;;;;15.57;10.10;;;;;;;;;;5091548;28;20025;-61
2021/05/18 15:54:26;;;;;;;15.55;10.10;;;;;;;;;;5073676;28;20024;-62
2021/05/18 15:56:53;;;;;;;15.88;9.70;;;;;;;;;;5074627;28;20124;-62
2021/05/18 15:59:19;;;;;;;16.05;10.38;;;;;;;;;;5052083;28;20025;-62
2021/05/18 16:01:45;;;;;;;15.85;10.88;;;;;;;;;;5052818;28;20041;-60
2021/05/18 16:04:11;;;;;;;15.82;10.52;;;;;;;;;;5053044;28;20389;-60
2021/05/18 16:06:43;;;;;;;16.42;10.65;;;;;;;;;;5052891;28;20096;-60
2021/05/18 16:09:10;;;;;;;15.85;10.25;;;;;;;;;;5052727;28;20025;-60
2021/05/18 16:11:36;;;;;;;16.27;10.55;;;;;;;;;;5034869;28;20025;-60
2021/05/18 16:14:03;;;;;;;16.75;10.50;;;;;;;;;;5052590;28;20025;-61
2021/05/18 16:16:29;;;;;;;16.00;10.43;;;;;;;;;;5052713;28;20025;-60
2021/05/18 16:18:55;;;;;;;16.00;10.25;;;;;;;;;;5051661;28;20448;-60
2021/05/18 16:21:23;;;;;;;18.63;10.30;;;;;;;;;;5068031;28;20033;-58
2021/05/18 16:23:51;;;;;;;16.65;10.63;;;;;;;;;;5052768;28;20424;-63
2021/05/18 16:26:17;;;;;;;15.95;9.70;;;;;;;;;;5052718;28;20021;-61
2021/05/18 16:28:44;;;;;;;16.30;10.25;;;;;;;;;;5033756;28;20397;-60
2021/05/18 16:31:10;;;;;;;16.85;10.13;;;;;;;;;;5052649;28;20388;-62
2021/05/18 16:33:37;;;;;;;15.57;9.48;;;;;;;;;;5052052;28;20056;-61
2021/05/18 16:36:04;;;;;;;15.60;9.57;;;;;;;;;;5034446;28;20120;-61
2021/05/18 16:38:30;;;;;;;16.73;10.00;;;;;;;;;;5051774;28;20028;-61
2021/05/18 16:40:57;;;;;;;17.42;10.02;;;;;;;;;;5051885;28;20039;-61
2021/05/18 16:43:24;;;;;;;16.23;9.73;;;;;;;;;;5067363;28;20083;-56
2021/05/18 16:45:52;;;;;;;16.42;10.00;;;;;;;;;;5051707;28;20157;-60
2021/05/18 16:48:18;;;;;;;16.50;9.57;;;;;;;;;;5066944;28;20373;-60
2021/05/18 16:50:44;;;;;;;16.48;9.77;;;;;;;;;;5051475;28;20036;-61
2021/05/18 16:53:10;;;;;;;16.40;10.27;;;;;;;;;;5052181;28;20025;-61
2021/05/18 16:55:37;;;;;;;17.65;9.93;;;;;;;;;;5067315;28;20017;-61
2021/05/18 16:58:03;;;;;;;15.80;9.85;;;;;;;;;;5034060;28;20025;-61
2021/05/18 17:00:29;;;;;;;17.15;10.30;;;;;;;;;;5051297;28;20032;-61
2021/05/18 17:02:56;;;;;;;15.98;9.85;;;11.30;99.90;;;;;;5067220;28;20029;-57
2021/05/18 17:05:25;;;;;;;16.05;9.98;;;;;;;;;;5051887;28;20507;-61
2021/05/18 17:07:51;;;;;;;16.80;9.85;;;;;;;;;;5051280;28;20507;-61
2021/05/18 17:10:19;;;;;;;17.42;9.18;;;;;;;;;;5051154;28;20060;-61
2021/05/18 17:12:45;;;;;;;16.50;9.23;;;;;;;;;;5033511;28;20507;-62
2021/05/18 17:15:11;;;;;;;16.00;8.43;;;;;;;;;;5051511;28;20092;-62
2021/05/18 17:17:37;;;;;;;15.65;9.00;;;;;;;;;;5051494;28;20044;-61
2021/05/18 17:20:03;;;;;;;17.30;9.25;;;;;;;;;;5050976;28;20032;-61
2021/05/18 17:22:29;;;;;;;17.52;9.82;;;;;;;;;;5051492;28;20419;-61
2021/05/18 17:24:55;;;;;;;15.57;8.88;;;;;;;;;;5051527;28;20025;-59
2021/05/18 17:27:21;;;;;;;15.88;9.18;;;;;;;;;;5033577;28;20029;-62
2021/05/18 17:29:47;;;;;;;16.15;9.88;;;;;;;;;;5032544;28;20075;-62
2021/05/18 17:32:13;;;;;;;16.63;9.60;;;;;;;;;;5033408;28;20021;-62
2021/05/18 17:34:40;;;;;;;16.27;9.80;;;;;;;;;;5051134;28;20116;-60
2021/05/18 17:37:08;;;;;;;17.17;9.45;;;;;;;;;;5050118;28;20041;-62
2021/05/18 17:39:34;;;;;;;15.65;10.13;;;;;;;;;;5050663;28;20396;-62
2021/05/18 17:42:00;;;;;;;17.30;10.30;;;;;;;;;;5051090;28;20484;-62
2021/05/18 17:44:28;;;;;;;15.93;9.63;;;18.20;99.90;;;;;;5052548;28;20080;-61
2021/05/18 17:46:55;;;;;;;15.35;9.65;;;21.10;99.90;;;;;;5070485;28;20401;-61
2021/05/18 17:49:22;;;;;;;15.77;9.82;;;20.00;99.90;;;;;;5069566;22;20111;-55
2021/05/18 17:51:49;;;;;;;15.90;9.65;;;19.60;99.90;;;;;;5054955;28;20393;-57
2021/05/18 17:54:16;;;;;;;17.90;10.38;;;19.40;99.90;;;;;;5054633;28;20535;-59
2021/05/18 17:56:41;;;;;;;25.17;10.50;;;19.20;99.90;;;;;;4702325;28;10000246;-57
2021/05/18 17:59:07;;;;;;;17.23;9.95;;;19.10;99.90;;;;;;5049605;28;20475;-60
2021/05/18 18:01:38;;;;;;;16.80;10.85;;;19.00;99.90;;;;;;5034712;28;20030;-59
2021/05/18 18:04:04;;;;;;;17.05;10.48;;;18.80;99.90;;;;;;5030409;28;20032;-61
2021/05/18 18:06:30;;;;;;;16.95;9.88;;;18.00;99.90;;;;;;5030010;28;20030;-60
2021/05/18 18:08:57;;;;;;;16.90;9.60;;;17.10;99.90;;;;;;5030100;28;20475;-58
2021/05/18 18:11:23;;;;;;;16.67;9.80;;;;;;;;;;5031424;28;20056;-60
2021/05/18 18:13:50;;;;;;;16.25;9.68;;;16.50;99.90;;;;;;5031399;28;20029;-59
2021/05/18 18:16:16;;;;;;;16.75;9.90;;;;;;;;;;5029404;28;20037;-58
2021/05/18 18:18:42;;;;;;;16.27;9.18;;;15.60;99.90;;;;;;5029425;28;20037;-59
2021/05/18 18:21:08;;;;;;;18.48;9.82;;;15.10;99.90;;;;;;5029989;28;20453;-60
2021/05/18 18:23:36;;;;;;;18.52;9.57;;;15.00;99.90;;;;;;5030201;28;20409;-57
2021/05/18 18:26:02;;;;;;;17.30;9.60;;;;;;;;;;5031858;28;20033;-60
2021/05/18 18:28:28;;;;;;;16.85;9.15;;;14.70;99.90;;;;;;5030336;28;20318;-58
2021/05/18 18:30:54;;;;;;;16.80;9.50;;;14.30;99.90;;;;;;5029619;28;20017;-58
2021/05/18 18:33:21;;;;;;;17.33;9.02;;;14.30;99.90;;;;;;5030998;28;20671;-56
2021/05/18 18:35:51;;;;;;;18.23;9.05;;;14.20;99.90;;;;;;5031550;28;20032;-59
2021/05/18 18:38:18;;;;;;;17.98;8.63;;;14.00;99.90;;;;;;5031220;28;20025;-59
2021/05/18 18:40:44;;;;;;;16.42;8.55;;;;;;;;;;5028935;28;20056;-57
2021/05/18 18:43:11;;;;;;;17.52;9.65;;;;;;;;;;5031126;28;20033;-57
2021/05/18 18:45:37;;;;;;;17.15;8.40;;;;;;;;;;5030928;28;20064;-59
2021/05/18 18:48:04;;;;;;;16.05;7.78;;;;;;;;;;5030143;28;20596;-59
2021/05/18 18:50:35;;;;;;;16.23;8.40;;;;;;;;;;5029981;28;20033;-55
2021/05/18 18:55:30;;;;;;;16.85;8.65;;;;;;;;;;5030394;28;20029;-60
2021/05/18 18:57:56;;;;;;;16.20;8.00;;;;;;;;;;5030240;28;20033;-60
2021/05/18 19:00:23;;;;;;;16.25;8.43;;;;;;;;;;5028760;28;20036;-59
2021/05/18 19:03:05;;;;;;;19.02;8.88;;;;;;;;;;5029325;28;20140;-59
2021/05/18 19:05:48;;;;;;;15.98;7.70;;;;;;;;;;5032037;28;20379;-59
2021/05/18 19:08:33;;;;;;;15.80;7.30;;;;;;;;;;5033316;28;20070;-58
2021/05/18 19:13:35;;;;;;;17.02;6.75;;;;;;;;;;4696743;28;9999708;-59
2021/05/18 19:16:01;;;;;;;17.63;6.68;;;;;;;;;;5050772;28;20029;-57
2021/05/18 19:18:27;;;;;;;15.60;6.82;;;;;;;;;;5030393;28;20425;-56
2021/05/18 19:20:53;;;;;;;15.35;7.18;;;;;;;;;;5029578;28;20569;-58
2021/05/18 19:23:22;;;;;;;15.32;6.85;;;;;;;;;;5030092;28;20069;-58
2021/05/18 19:25:48;;;;;;;16.75;7.57;;;;;;;;;;5030408;28;20018;-58
2021/05/18 19:28:16;;;;;;;15.43;6.38;;;;;;;;;;5030263;28;20025;-58
2021/05/18 19:30:45;;;;;;;17.60;7.80;;;;;;;;;;5029579;28;20030;-59
2021/05/18 19:33:14;;;;;;;18.90;7.78;;;;;;;;;;5028860;28;20673;-60
2021/05/18 19:41:28;;;;;;;16.70;7.93;;;;;;;;;;5029721;28;20036;-54
2021/05/18 19:51:55;;;;;;;17.17;8.30;;;;;;;;;;5029759;28;20498;-57
2021/05/18 19:54:26;;;;;;;19.98;8.75;;;;;;;;;;5028235;28;20119;-58
2021/05/18 19:57:04;;;;;;;20.70;9.07;;;;;;;;;;5029149;28;20026;-57
2021/05/18 20:20:49;;;;;;;18.60;8.25;;;;;;;;;;5027931;28;20046;-60
2021/05/18 20:23:16;;;;;;;17.42;8.30;;;;;;;;;;5028621;28;20013;-58
2021/05/18 20:25:41;;;;;;;21.85;9.20;;;;;;;;;;5028181;28;20029;-60
2021/05/18 20:28:07;;;;;;;18.02;8.23;;;;;;;;;;5027216;28;20505;-59
2021/05/18 20:30:33;;;;;;;18.25;8.70;;;;;;;;;;5028105;28;20017;-58
2021/05/18 20:33:00;;;;;;;18.98;9.38;;;;;;;;;;5028050;28;20114;-57
2021/05/18 20:40:43;;;;;;;18.15;7.78;;;;;;;;;;5029065;28;20616;-60
2021/05/18 20:43:10;;;;;;;17.40;7.70;;;;;;;;;;5029136;28;20026;-59
2021/05/18 20:45:36;;;;;;;17.10;7.55;;;;;;;;;;5028833;28;20044;-59
2021/05/18 20:48:02;;;;;;;19.20;8.95;;;;;;;;;;5028368;28;20041;-59
2021/05/18 20:50:30;;;;;;;18.23;8.70;;;;;;;;;;5027907;28;20033;-56
2021/05/18 20:52:56;;;;;;;18.58;8.82;;;;;;;;;;5028612;28;20371;-61
2021/05/18 20:55:22;;;;;;;20.48;10.20;;;;;;;;;;5028510;28;20059;-57
2021/05/18 20:57:48;;;;;;;22.33;11.25;;;;;;;;;;5028483;28;20075;-58
2021/05/18 21:00:15;;;;;;;21.45;10.32;;;;;;;;;;5027723;28;20028;-59